Time;durP1;ratioP1;P1;durP2;ratioP2;P2;SDS_P1;SDS_P2;PMS_P1;PMS_P2;Temp;Humidity;BMP_temperature;BMP_pressure;BME280_temperature;BME280_humidity;BME280_pressure;Samples;Min_cycle;Max_cycle;Signal;HPM_P1;HPM_P2
2022/08/31 00:04:54;;;;;;;7.80;7.00;;;21.40;99.90;;;;;;5013551;28;20193;-88
2022/08/31 00:07:20;;;;;;;8.55;6.88;;;21.40;99.90;;;;;;4996623;28;20179;-88
2022/08/31 00:09:46;;;;;;;7.05;6.45;;;21.40;99.90;;;;;;5014025;28;20230;-88
2022/08/31 00:12:12;;;;;;;7.70;7.00;;;21.40;99.90;;;;;;4996653;28;20195;-88
2022/08/31 00:14:38;;;;;;;6.85;6.22;;;21.50;99.90;;;;;;4996789;28;20175;-87
2022/08/31 00:17:04;;;;;;;8.45;7.45;;;21.50;99.90;;;;;;4994336;28;20282;-88
2022/08/31 00:19:30;;;;;;;6.80;6.20;;;21.50;99.90;;;;;;4998571;28;20203;-87
2022/08/31 00:21:56;;;;;;;7.93;6.80;;;21.50;99.90;;;;;;4997654;28;20203;-88
2022/08/31 00:24:22;;;;;;;7.32;6.22;;;21.50;99.90;;;;;;4996783;28;20187;-88
2022/08/31 00:26:48;;;;;;;7.75;6.97;;;21.50;99.90;;;;;;4992607;28;20220;-88
2022/08/31 00:29:14;;;;;;;7.18;6.50;;;21.50;99.90;;;;;;4993154;28;20184;-87
2022/08/31 00:31:40;;;;;;;8.80;6.80;;;21.40;99.90;;;;;;4996382;28;20206;-88
2022/08/31 00:34:06;;;;;;;7.93;7.15;;;21.40;99.90;;;;;;4996776;28;20234;-88
2022/08/31 00:36:32;;;;;;;6.70;6.00;;;21.50;99.90;;;;;;4993403;28;20187;-88
2022/08/31 00:38:58;;;;;;;7.93;6.88;;;21.50;99.90;;;;;;4993483;28;20180;-88
2022/08/31 00:41:28;;;;;;;6.43;5.82;;;21.50;99.90;;;;;;4995936;28;20257;-88
2022/08/31 00:43:57;;;;;;;7.00;5.03;;;21.40;99.90;;;;;;4996536;28;20307;-87
2022/08/31 00:46:36;;;;;;;9.32;4.75;;;21.40;99.90;;;;;;4995762;28;20207;-88
2022/08/31 00:49:17;;;;;;;7.30;4.90;;;21.30;99.90;;;;;;4996795;28;20179;-87
2022/08/31 00:51:52;;;;;;;8.52;4.80;;;21.20;99.90;;;;;;4992480;28;20207;-88
2022/08/31 00:54:24;;;;;;;5.50;5.00;;;21.00;99.90;;;;;;4992717;28;20183;-87
2022/08/31 00:56:50;;;;;;;6.72;5.10;;;20.90;99.90;;;;;;5006947;28;20214;-87
2022/08/31 00:59:19;;;;;;;5.88;5.25;;;20.70;99.90;;;;;;4996514;28;20186;-87
2022/08/31 01:01:45;;;;;;;7.15;4.70;;;20.50;99.90;;;;;;4992867;28;20674;-87
2022/08/31 01:04:11;;;;;;;6.85;4.97;;;20.40;99.90;;;;;;4992313;28;20183;-88
2022/08/31 01:06:38;;;;;;;5.38;4.72;;;20.30;99.90;;;;;;4995709;28;20727;-87
2022/08/31 01:09:06;;;;;;;10.50;5.10;;;20.30;99.90;;;;;;4996604;28;20190;-87
2022/08/31 01:11:35;;;;;;;5.50;5.00;;;20.20;99.90;;;;;;5011863;28;20214;-87
2022/08/31 01:14:01;;;;;;;8.55;5.47;;;20.10;99.90;;;;;;4995820;28;20279;-87
2022/08/31 01:16:52;;;;;;;8.25;4.90;;;20.00;99.90;;;;;;4991331;28;20219;-87
2022/08/31 01:19:30;;;;;;;9.82;5.95;;;19.90;99.90;;;;;;4974558;28;20195;-86
2022/08/31 01:22:02;;;;;;;10.15;6.40;;;19.80;99.90;;;;;;4994239;28;20206;-87
2022/08/31 01:24:32;;;;;;;13.13;6.38;;;19.80;99.90;;;;;;4994422;28;20185;-87
2022/08/31 01:27:02;;;;;;;11.32;5.80;;;19.50;99.90;;;;;;4990191;28;20207;-86
2022/08/31 01:29:31;;;;;;;11.15;6.53;;;19.30;99.90;;;;;;4991537;28;20200;-86
2022/08/31 01:31:57;;;;;;;7.80;5.97;;;19.20;99.90;;;;;;4994441;28;20253;-87
2022/08/31 01:34:23;;;;;;;9.93;6.60;;;19.20;99.90;;;;;;4994586;28;20171;-86
2022/08/31 01:36:50;;;;;;;6.60;5.93;;;19.10;99.90;;;;;;4995080;28;20290;-87
2022/08/31 01:39:18;;;;;;;8.10;6.53;;;19.20;99.90;;;;;;4995832;28;20552;-87
2022/08/31 01:41:45;;;;;;;8.02;5.75;;;19.10;99.90;;;;;;4991856;28;20212;-87
2022/08/31 01:44:13;;;;;;;10.52;6.65;;;19.00;99.90;;;;;;4991499;28;20195;-87
2022/08/31 01:46:39;;;;;;;11.45;7.65;;;19.10;99.90;;;;;;4994183;28;20213;-86
2022/08/31 01:49:06;;;;;;;9.05;6.53;;;19.10;99.90;;;;;;4994524;28;20175;-87
2022/08/31 01:51:32;;;;;;;8.52;5.85;;;19.00;99.90;;;;;;4990894;28;20206;-86
2022/08/31 01:53:58;;;;;;;8.18;6.05;;;19.00;99.90;;;;;;4991606;28;20234;-87
2022/08/31 01:56:29;;;;;;;7.18;6.40;;;19.10;99.90;;;;;;4996175;28;20279;-87
2022/08/31 01:58:58;;;;;;;7.65;6.18;;;19.10;99.90;;;;;;4998372;28;20254;-86
2022/08/31 02:01:46;;;;;;;10.10;6.03;;;19.10;99.90;;;;;;5013383;28;20226;-86
2022/08/31 02:04:15;;;;;;;6.30;5.65;;;19.20;99.90;;;;;;4998759;28;20190;-87
2022/08/31 02:06:44;;;;;;;8.73;6.57;;;19.10;99.90;;;;;;4994291;28;20748;-87
2022/08/31 02:09:10;;;;;;;9.13;6.88;;;19.10;99.90;;;;;;4994705;28;20179;-87
2022/08/31 02:11:36;;;;;;;10.80;6.50;;;19.10;99.90;;;;;;4997705;28;20191;-86
2022/08/31 02:14:03;;;;;;;9.15;6.22;;;19.10;99.90;;;;;;5010545;28;20638;-86
2022/08/31 02:16:29;;;;;;;7.40;6.57;;;19.10;99.90;;;;;;4997563;28;20183;-86
2022/08/31 02:18:55;;;;;;;7.55;6.47;;;19.20;99.90;;;;;;4998152;28;20183;-87
2022/08/31 02:21:21;;;;;;;11.02;6.97;;;19.20;99.90;;;;;;4994809;28;20201;-87
2022/08/31 02:23:48;;;;;;;8.13;6.88;;;19.10;99.90;;;;;;4994569;28;20283;-87
2022/08/31 02:26:14;;;;;;;9.35;6.53;;;19.20;99.90;;;;;;4998076;28;20198;-87
2022/08/31 02:28:44;;;;;;;8.05;6.90;;;19.10;99.90;;;;;;4995367;28;20179;-87
2022/08/31 02:31:10;;;;;;;8.52;6.78;;;19.10;99.90;;;;;;4995215;28;20200;-87
2022/08/31 02:33:44;;;;;;;8.00;6.85;;;19.10;99.90;;;;;;4995039;28;20226;-87
2022/08/31 02:36:11;;;;;;;9.35;6.97;;;19.00;99.90;;;;;;4998255;28;20270;-87
2022/08/31 02:38:38;;;;;;;8.40;7.00;;;19.00;99.90;;;;;;4997792;28;20310;-86
2022/08/31 02:41:05;;;;;;;8.65;7.10;;;19.00;99.90;;;;;;4994782;28;20258;-87
2022/08/31 02:43:31;;;;;;;9.25;6.68;;;19.10;99.90;;;;;;4994970;28;20180;-86
2022/08/31 02:45:57;;;;;;;8.65;6.43;;;19.10;99.90;;;;;;4997873;28;20203;-86
2022/08/31 02:48:31;;;;;;;10.32;6.93;;;19.00;99.90;;;;;;4998974;28;20186;-87
2022/08/31 02:51:04;;;;;;;10.15;7.22;;;19.00;99.90;;;;;;4994018;28;20200;-86
2022/08/31 02:53:30;;;;;;;12.23;8.40;;;19.00;99.90;;;;;;4995424;28;20235;-87
2022/08/31 02:55:56;;;;;;;11.95;7.78;;;18.90;99.90;;;;;;4997817;28;20229;-87
2022/08/31 02:58:22;;;;;;;12.60;8.27;;;18.90;99.90;;;;;;4998019;28;20187;-87
2022/08/31 03:00:48;;;;;;;12.60;7.85;;;18.90;99.90;;;;;;4994096;28;20768;-87
2022/08/31 03:03:15;;;;;;;11.45;7.57;;;18.80;99.90;;;;;;4994459;28;20207;-87
2022/08/31 03:05:43;;;;;;;12.07;8.35;;;18.80;99.90;;;;;;4997629;28;21061;-87
2022/08/31 03:08:09;;;;;;;10.23;8.07;;;18.80;99.90;;;;;;4996406;28;20255;-87
2022/08/31 03:10:36;;;;;;;9.80;7.40;;;18.80;99.90;;;;;;4997626;28;20171;-87
2022/08/31 03:13:02;;;;;;;9.45;7.22;;;18.80;99.90;;;;;;4998213;28;20233;-87
2022/08/31 03:15:28;;;;;;;10.68;7.18;;;18.70;99.90;;;;;;4994290;28;20180;-87
2022/08/31 03:17:54;;;;;;;11.32;7.97;;;18.60;99.90;;;;;;4994342;28;20175;-87
2022/08/31 03:20:25;;;;;;;9.02;7.40;;;18.60;99.90;;;;;;4997179;28;20183;-87
2022/08/31 03:22:53;;;;;;;11.07;7.55;;;18.60;99.90;;;;;;4997080;28;20183;-87
2022/08/31 03:25:20;;;;;;;9.13;6.63;;;18.60;99.90;;;;;;4996097;28;20207;-86
2022/08/31 03:27:48;;;;;;;11.32;7.30;;;18.60;99.90;;;;;;5013040;28;20668;-86
2022/08/31 03:30:17;;;;;;;8.25;6.85;;;18.50;99.90;;;;;;4996242;28;20179;-87
2022/08/31 03:32:49;;;;;;;10.23;8.00;;;18.50;99.90;;;;;;4997448;28;20596;-86
2022/08/31 03:35:17;;;;;;;8.85;7.95;;;18.50;99.90;;;;;;4996117;28;20178;-86
2022/08/31 03:37:44;;;;;;;9.38;6.82;;;18.50;99.90;;;;;;5012569;28;20190;-87
2022/08/31 03:40:11;;;;;;;9.27;7.10;;;18.50;99.90;;;;;;4996543;28;20179;-86
2022/08/31 03:42:37;;;;;;;10.00;6.88;;;18.40;99.90;;;;;;4996511;28;20199;-87
2022/08/31 03:45:05;;;;;;;6.97;6.32;;;18.50;99.90;;;;;;4996328;28;20180;-86
2022/08/31 03:47:33;;;;;;;9.27;7.00;;;18.60;99.90;;;;;;4996102;28;20270;-86
2022/08/31 03:49:59;;;;;;;6.72;6.10;;;18.50;99.90;;;;;;4992994;28;20180;-87
2022/08/31 03:52:31;;;;;;;8.23;6.53;;;18.50;99.90;;;;;;4996053;28;20204;-87
2022/08/31 03:55:04;;;;;;;7.55;6.53;;;18.40;99.90;;;;;;4996778;28;20266;-87
2022/08/31 03:57:31;;;;;;;8.65;6.90;;;18.30;99.90;;;;;;4994846;28;20179;-87
2022/08/31 03:59:57;;;;;;;7.93;6.38;;;18.40;99.90;;;;;;4996291;28;20210;-87
2022/08/31 04:02:42;;;;;;;7.68;6.18;;;18.40;99.90;;;;;;5012351;28;20230;-86
2022/08/31 04:05:32;;;;;;;8.35;6.47;;;18.40;99.90;;;;;;5013064;28;20214;-86
2022/08/31 04:08:18;;;;;;;7.97;6.30;;;18.40;99.90;;;;;;5011695;28;20240;-86
2022/08/31 04:10:47;;;;;;;6.53;5.95;;;18.30;99.90;;;;;;5011751;28;20249;-86
2022/08/31 04:13:32;;;;;;;6.65;5.90;;;18.30;99.90;;;;;;5011277;28;20194;-86
2022/08/31 04:16:19;;;;;;;6.65;5.93;;;18.30;99.90;;;;;;5011614;28;20270;-86
2022/08/31 04:19:18;;;;;;;7.95;6.07;;;18.40;99.90;;;;;;4991417;28;20276;-86
2022/08/31 04:22:10;;;;;;;7.28;5.53;;;18.40;99.90;;;;;;5001660;28;20204;-86
2022/08/31 04:24:46;;;;;;;6.82;5.40;;;18.40;99.90;;;;;;4995689;28;20178;-86
2022/08/31 04:27:12;;;;;;;6.45;5.55;;;18.40;99.90;;;;;;4994563;28;20214;-86
2022/08/31 04:29:39;;;;;;;6.25;5.65;;;18.30;99.90;;;;;;4991455;28;20642;-87
2022/08/31 04:32:06;;;;;;;7.45;6.53;;;18.40;99.90;;;;;;4991575;28;20227;-86
2022/08/31 04:34:32;;;;;;;6.22;5.60;;;18.40;99.90;;;;;;4994551;28;20183;-86
2022/08/31 04:36:58;;;;;;;6.35;5.75;;;18.30;99.90;;;;;;4994752;28;20195;-86
2022/08/31 04:39:24;;;;;;;7.00;5.70;;;18.30;99.90;;;;;;4991100;28;20187;-86
2022/08/31 04:41:50;;;;;;;6.90;6.20;;;18.40;99.90;;;;;;4991562;28;20196;-85
2022/08/31 04:44:17;;;;;;;6.22;5.63;;;18.40;99.90;;;;;;4994569;28;20183;-86
2022/08/31 04:46:42;;;;;;;5.78;5.18;;;18.40;99.90;;;;;;4994493;28;20237;-86
2022/08/31 04:49:10;;;;;;;7.70;5.97;;;18.40;99.90;;;;;;4990799;28;20238;-86
2022/08/31 04:51:38;;;;;;;6.10;5.60;;;18.30;99.90;;;;;;4991962;28;20211;-87
2022/08/31 04:54:07;;;;;;;6.65;5.93;;;18.30;99.90;;;;;;4990228;28;20183;-86
2022/08/31 04:56:37;;;;;;;6.22;5.55;;;18.20;99.90;;;;;;4994233;28;20191;-86
2022/08/31 04:59:06;;;;;;;8.05;6.15;;;18.10;99.90;;;;;;4974783;28;20207;-86
2022/08/31 05:01:40;;;;;;;7.97;6.18;;;18.20;99.90;;;;;;4975238;28;20700;-86
2022/08/31 05:04:27;;;;;;;6.63;5.90;;;18.20;99.90;;;;;;4991154;28;20182;-86
2022/08/31 05:06:53;;;;;;;7.68;5.57;;;18.20;99.90;;;;;;4976021;28;20215;-86
2022/08/31 05:09:21;;;;;;;6.45;5.75;;;18.20;99.90;;;;;;4994189;28;20176;-87
2022/08/31 05:11:50;;;;;;;7.60;5.97;;;18.20;99.90;;;;;;4994101;28;20202;-86
2022/08/31 05:14:16;;;;;;;9.27;6.05;;;18.20;99.90;;;;;;4990876;28;20188;-86
2022/08/31 05:16:47;;;;;;;7.00;6.30;;;18.30;99.90;;;;;;5017271;28;20676;-86
2022/08/31 05:19:13;;;;;;;6.65;5.75;;;18.30;99.90;;;;;;4984928;28;20184;-86
2022/08/31 05:21:41;;;;;;;7.60;6.30;;;18.30;99.90;;;;;;5017181;28;20202;-86
2022/08/31 05:24:20;;;;;;;8.30;6.53;;;18.30;99.90;;;;;;4987268;28;20206;-86
2022/08/31 05:26:51;;;;;;;9.98;6.90;;;18.10;99.90;;;;;;4974268;28;20234;-86
2022/08/31 05:29:22;;;;;;;8.45;6.20;;;18.10;99.90;;;;;;4992105;28;20277;-86
2022/08/31 05:31:51;;;;;;;6.90;6.15;;;18.00;99.90;;;;;;4990205;28;20207;-86
2022/08/31 05:34:19;;;;;;;7.60;6.78;;;17.90;99.90;;;;;;4977355;28;20172;-86
2022/08/31 05:36:51;;;;;;;7.45;6.45;;;17.90;99.90;;;;;;5009638;28;20186;-86
2022/08/31 05:39:16;;;;;;;10.50;8.95;;;17.80;99.90;;;;;;4989184;28;20179;-86
2022/08/31 05:41:44;;;;;;;13.82;10.43;;;17.70;99.90;;;;;;4992430;28;20204;-86
2022/08/31 05:44:12;;;;;;;15.98;11.60;;;17.60;99.90;;;;;;4993067;28;20183;-86
2022/08/31 05:46:39;;;;;;;14.98;11.60;;;17.60;99.90;;;;;;5011771;28;20253;-86
2022/08/31 05:49:10;;;;;;;9.70;8.50;;;17.60;99.90;;;;;;4995391;28;20183;-86
2022/08/31 05:51:43;;;;;;;9.45;8.18;;;17.60;99.90;;;;;;5010359;28;20199;-86
2022/08/31 05:54:09;;;;;;;8.65;7.43;;;17.50;99.90;;;;;;5025998;28;20251;-85
2022/08/31 05:56:39;;;;;;;8.25;7.43;;;17.60;99.90;;;;;;4999041;28;20247;-85
2022/08/31 05:59:25;;;;;;;9.00;8.10;;;17.60;99.90;;;;;;5025543;28;20187;-86
2022/08/31 06:01:51;;;;;;;11.20;9.10;;;17.60;99.90;;;;;;5015214;28;20710;-86
2022/08/31 06:04:23;;;;;;;11.43;9.17;;;17.60;99.90;;;;;;4989554;28;20188;-86
2022/08/31 06:06:49;;;;;;;11.83;9.37;;;17.50;99.90;;;;;;4992830;28;20207;-86
2022/08/31 06:09:19;;;;;;;10.40;7.80;;;17.50;99.90;;;;;;5018117;28;20215;-86
2022/08/31 06:11:45;;;;;;;8.33;7.10;;;17.40;99.90;;;;;;5018471;28;20202;-86
2022/08/31 06:14:14;;;;;;;8.60;7.57;;;17.40;99.90;;;;;;4992512;28;20172;-86
2022/08/31 06:16:43;;;;;;;8.53;7.33;;;17.40;99.90;;;;;;4976108;28;20190;-86
2022/08/31 06:19:10;;;;;;;9.00;7.47;;;17.40;99.90;;;;;;4994868;28;20176;-86
2022/08/31 06:21:42;;;;;;;7.90;6.97;;;17.50;99.90;;;;;;4990489;28;20291;-86
2022/08/31 06:24:11;;;;;;;8.27;7.13;;;17.50;99.90;;;;;;4994848;28;20179;-86
2022/08/31 06:26:38;;;;;;;8.75;6.97;;;17.50;99.90;;;;;;4997124;28;20568;-86
2022/08/31 06:29:15;;;;;;;9.07;7.72;;;17.50;99.90;;;;;;4992920;28;20207;-86
2022/08/31 06:31:46;;;;;;;9.43;7.73;;;17.50;99.90;;;;;;4975423;28;20215;-86
2022/08/31 06:34:16;;;;;;;7.53;6.82;;;17.60;99.90;;;;;;4974356;28;20299;-86
2022/08/31 06:37:01;;;;;;;8.40;6.78;;;17.60;99.90;;;;;;4990142;28;20195;-86
2022/08/31 06:39:54;;;;;;;9.98;8.63;;;17.60;99.90;;;;;;5019106;28;20253;-87
2022/08/31 06:42:41;;;;;;;12.52;10.55;;;17.70;99.90;;;;;;5003392;28;20211;-87
2022/08/31 06:46:04;;;;;;;11.20;10.00;;;17.80;99.90;;;;;;5009249;28;20234;-87
2022/08/31 06:49:05;;;;;;;8.80;7.47;;;17.80;99.90;;;;;;5003915;28;20598;-88
2022/08/31 06:51:37;;;;;;;8.57;6.85;;;17.80;99.90;;;;;;5008859;28;20217;-87
2022/08/31 06:54:20;;;;;;;8.38;6.93;;;17.80;99.90;;;;;;4994459;28;20190;-88
2022/08/31 06:57:19;;;;;;;8.00;6.72;;;17.80;99.90;;;;;;5010733;28;20183;-87
2022/08/31 07:00:14;;;;;;;6.93;6.22;;;17.80;99.90;;;;;;4945758;28;20192;-87
2022/08/31 07:02:46;;;;;;;7.05;6.00;;;17.80;99.90;;;;;;4995381;28;20254;-87
2022/08/31 07:05:12;;;;;;;6.97;6.27;;;17.70;99.90;;;;;;5001317;28;20190;-87
2022/08/31 07:07:44;;;;;;;8.30;6.65;;;17.70;99.90;;;;;;4995800;28;20191;-87
2022/08/31 07:10:10;;;;;;;8.45;6.53;;;17.60;99.90;;;;;;4992928;28;20191;-87
2022/08/31 07:12:36;;;;;;;9.98;7.40;;;17.60;99.90;;;;;;4983226;28;20195;-87
2022/08/31 07:15:04;;;;;;;8.70;6.97;;;17.60;99.90;;;;;;4986642;28;20187;-87
2022/08/31 07:17:35;;;;;;;8.05;6.60;;;17.60;99.90;;;;;;5010308;28;20189;-87
2022/08/31 07:20:04;;;;;;;8.55;7.40;;;17.60;99.90;;;;;;5011494;28;20182;-87
2022/08/31 07:22:32;;;;;;;7.07;6.38;;;17.60;99.90;;;;;;4997126;28;20215;-86
2022/08/31 07:25:14;;;;;;;8.93;6.97;;;17.60;99.90;;;;;;5005273;28;20187;-87
2022/08/31 07:27:40;;;;;;;6.38;5.72;;;17.70;99.90;;;;;;4996326;28;20188;-87
2022/08/31 07:30:08;;;;;;;7.13;6.22;;;17.70;99.90;;;;;;4993838;28;20178;-87
2022/08/31 07:32:34;;;;;;;7.57;6.75;;;17.70;99.90;;;;;;4997332;28;20207;-87
2022/08/31 07:35:00;;;;;;;7.95;7.15;;;17.70;99.90;;;;;;4997851;28;20183;-87
2022/08/31 07:43:03;;;;;;;8.07;7.28;;;17.80;99.90;;;;;;5011580;28;20170;-87
2022/08/31 07:45:31;;;;;;;9.07;7.63;;;17.80;99.90;;;;;;4998599;28;20195;-87
2022/08/31 07:47:58;;;;;;;8.70;7.30;;;17.90;99.90;;;;;;4996611;28;20231;-87
2022/08/31 07:50:29;;;;;;;9.75;8.25;;;17.90;99.90;;;;;;4997538;28;20233;-87
2022/08/31 07:53:11;;;;;;;10.98;8.13;;;18.00;99.90;;;;;;4998849;28;20214;-87
2022/08/31 07:55:46;;;;;;;8.55;7.22;;;17.90;99.90;;;;;;5007054;28;20544;-87
2022/08/31 07:58:31;;;;;;;7.35;6.63;;;17.90;99.90;;;;;;5014290;28;20269;-87
2022/08/31 08:01:02;;;;;;;7.63;6.82;;;17.90;99.90;;;;;;4996399;28;20665;-87
2022/08/31 08:03:29;;;;;;;6.32;5.57;;;17.90;99.90;;;;;;4997704;28;20195;-87
2022/08/31 08:06:15;;;;;;;8.90;7.40;;;17.90;99.90;;;;;;5013517;28;20222;-87
2022/08/31 08:09:06;;;;;;;6.85;6.15;;;17.90;99.90;;;;;;5013306;28;20202;-87
2022/08/31 08:11:56;;;;;;;7.05;6.15;;;17.90;99.90;;;;;;5003305;28;20217;-87
2022/08/31 08:14:45;;;;;;;7.30;6.22;;;17.90;99.90;;;;;;4993103;28;20171;-87
2022/08/31 08:17:35;;;;;;;7.70;6.90;;;18.00;99.90;;;;;;4984901;28;20183;-87
2022/08/31 08:20:08;;;;;;;7.47;6.78;;;18.10;99.90;;;;;;5000579;28;20186;-86
2022/08/31 08:22:39;;;;;;;7.95;7.13;;;18.10;99.90;;;;;;5011709;28;20202;-87
2022/08/31 08:25:27;;;;;;;7.63;6.82;;;18.10;99.90;;;;;;4991532;28;20708;-87
2022/08/31 08:28:03;;;;;;;8.45;7.05;;;18.20;99.90;;;;;;4997805;28;20658;-87
2022/08/31 08:30:33;;;;;;;7.68;6.15;;;18.20;99.90;;;;;;4996566;28;20179;-87
2022/08/31 08:33:02;;;;;;;7.82;6.75;;;18.30;99.90;;;;;;5013157;28;20233;-87
2022/08/31 08:35:29;;;;;;;8.00;7.20;;;18.30;99.90;;;;;;4996592;28;20206;-87
2022/08/31 08:37:56;;;;;;;7.60;6.88;;;18.40;99.90;;;;;;4996198;28;20190;-81
2022/08/31 08:40:35;;;;;;;7.85;6.35;;;18.50;99.90;;;;;;5012059;28;20175;-87
2022/08/31 08:43:04;;;;;;;8.20;6.93;;;18.50;99.90;;;;;;5000404;28;20667;-87
2022/08/31 08:45:34;;;;;;;6.93;6.32;;;18.60;99.90;;;;;;5013365;28;20195;-87
2022/08/31 08:48:16;;;;;;;7.10;6.13;;;18.60;99.90;;;;;;5013634;28;20168;-87
2022/08/31 08:50:43;;;;;;;7.35;6.53;;;18.60;99.90;;;;;;4996085;28;20217;-87
2022/08/31 08:53:18;;;;;;;6.90;6.30;;;18.60;99.90;;;;;;4996997;28;20270;-87
2022/08/31 08:55:55;;;;;;;7.38;6.10;;;18.60;99.90;;;;;;4999874;28;20182;-86
2022/08/31 08:58:22;;;;;;;6.82;6.22;;;18.60;99.90;;;;;;5012494;28;20187;-87
2022/08/31 09:00:53;;;;;;;6.97;6.13;;;18.50;99.90;;;;;;4992997;28;20262;-87
2022/08/31 09:03:37;;;;;;;8.20;6.85;;;18.60;99.90;;;;;;4990137;28;20186;-87
2022/08/31 09:06:25;;;;;;;7.65;6.85;;;18.60;99.90;;;;;;5020992;28;20228;-86
2022/08/31 09:09:07;;;;;;;6.65;6.05;;;18.60;99.90;;;;;;4991157;28;20194;-87
2022/08/31 09:12:06;;;;;;;6.90;6.20;;;18.60;99.90;;;;;;5008203;28;20572;-86
2022/08/31 09:15:02;;;;;;;7.70;6.90;;;18.60;99.90;;;;;;4992401;28;20254;-80
2022/08/31 09:17:47;;;;;;;6.80;6.20;;;18.60;99.90;;;;;;4994099;28;20182;-79
2022/08/31 09:20:15;;;;;;;7.32;6.63;;;18.70;99.90;;;;;;4995572;28;20174;-79
2022/08/31 09:22:51;;;;;;;6.10;5.50;;;18.70;99.90;;;;;;5003240;28;20198;-79
2022/08/31 09:25:33;;;;;;;7.90;7.00;;;18.80;99.90;;;;;;5031359;28;20330;-79
2022/08/31 09:28:10;;;;;;;7.63;6.85;;;18.80;99.90;;;;;;5013389;28;20183;-78
2022/08/31 09:30:49;;;;;;;7.28;6.03;;;18.90;99.90;;;;;;5005465;28;20211;-85
2022/08/31 09:33:25;;;;;;;7.43;6.50;;;18.90;99.90;;;;;;5000395;28;20261;-85
2022/08/31 09:36:11;;;;;;;7.93;6.75;;;19.00;99.90;;;;;;5002807;28;20218;-85
2022/08/31 09:38:39;;;;;;;8.32;6.25;;;19.00;99.90;;;;;;4986524;28;20185;-88
2022/08/31 09:41:31;;;;;;;7.20;6.55;;;19.00;99.90;;;;;;4998262;28;20195;-88
2022/08/31 09:44:20;;;;;;;6.82;6.07;;;19.10;99.90;;;;;;4991832;28;20269;-88
2022/08/31 09:46:52;;;;;;;6.03;5.45;;;19.10;99.90;;;;;;4993125;28;20179;-87
2022/08/31 09:49:26;;;;;;;7.47;6.60;;;19.10;99.90;;;;;;5008807;28;20202;-86
2022/08/31 09:51:53;;;;;;;7.03;5.85;;;19.20;99.90;;;;;;5001578;28;20261;-88
2022/08/31 09:57:10;;;;;;;7.20;6.50;;;19.30;99.90;;;;;;5009022;28;20226;-88
2022/08/31 09:59:44;;;;;;;7.07;6.38;;;19.20;99.90;;;;;;4994958;28;20186;-86
2022/08/31 10:02:25;;;;;;;7.57;6.38;;;19.10;99.90;;;;;;5008591;28;20215;-87
2022/08/31 10:04:54;;;;;;;8.77;7.93;;;19.20;99.90;;;;;;4994909;28;20171;-86
2022/08/31 10:07:46;;;;;;;8.40;7.10;;;19.30;99.90;;;;;;4997204;28;20212;-87
2022/08/31 10:10:31;;;;;;;7.93;6.85;;;19.30;99.90;;;;;;4989664;28;20194;-87
2022/08/31 10:13:21;;;;;;;7.20;6.38;;;19.30;99.90;;;;;;4990660;28;20187;-86
2022/08/31 10:15:59;;;;;;;8.25;6.53;;;19.30;99.90;;;;;;4996279;28;21376;-87
2022/08/31 10:18:42;;;;;;;7.97;7.18;;;19.30;99.90;;;;;;4981530;28;20176;-87
2022/08/31 10:21:25;;;;;;;8.13;6.60;;;19.40;99.90;;;;;;5004516;28;20199;-86
2022/08/31 10:24:31;;;;;;;6.78;6.10;;;19.40;99.90;;;;;;5015370;28;20175;-86
2022/08/31 10:27:07;;;;;;;6.05;5.20;;;19.40;99.90;;;;;;5007878;28;20208;-86
2022/08/31 10:29:55;;;;;;;8.05;6.57;;;19.50;99.90;;;;;;4985965;28;20187;-86
2022/08/31 10:32:26;;;;;;;7.70;6.10;;;19.40;99.90;;;;;;4999037;28;20330;-86
2022/08/31 10:35:18;;;;;;;7.13;6.43;;;19.50;99.90;;;;;;4999618;28;20175;-87
2022/08/31 10:38:07;;;;;;;6.95;6.25;;;19.60;99.90;;;;;;5000729;28;20182;-86
2022/08/31 10:40:43;;;;;;;6.80;6.20;;;19.70;99.90;;;;;;5014173;28;20163;-86
2022/08/31 10:43:20;;;;;;;6.50;5.78;;;19.70;99.90;;;;;;4993926;28;20243;-86
2022/08/31 10:45:49;;;;;;;6.72;5.93;;;19.70;99.90;;;;;;4995184;28;20175;-86
2022/08/31 10:48:18;;;;;;;7.50;6.50;;;19.70;99.90;;;;;;5011016;28;20713;-87
2022/08/31 10:50:50;;;;;;;7.03;6.22;;;19.70;99.90;;;;;;5007839;28;20685;-86
2022/08/31 10:53:32;;;;;;;6.60;6.05;;;19.70;99.90;;;;;;4998209;28;20175;-86
2022/08/31 10:56:17;;;;;;;7.07;6.38;;;19.70;99.90;;;;;;4997836;28;20202;-87
2022/08/31 10:59:08;;;;;;;7.95;6.75;;;19.80;99.90;;;;;;5013902;28;20278;-87
2022/08/31 11:01:43;;;;;;;8.25;7.43;;;19.80;99.90;;;;;;5001557;28;20296;-86
2022/08/31 11:04:41;;;;;;;6.80;6.10;;;19.90;99.90;;;;;;4986258;28;20523;-87
2022/08/31 11:07:29;;;;;;;8.25;6.60;;;19.90;99.90;;;;;;4998150;28;20214;-86
2022/08/31 11:10:19;;;;;;;7.60;6.80;;;20.00;99.90;;;;;;5050370;28;20171;-87
2022/08/31 11:12:50;;;;;;;7.75;6.78;;;20.00;99.90;;;;;;5013362;28;20225;-87
2022/08/31 11:15:57;;;;;;;7.95;7.03;;;20.00;99.90;;;;;;5013842;28;20241;-87
2022/08/31 11:18:56;;;;;;;6.90;6.28;;;20.00;99.90;;;;;;4997436;28;20626;-86
2022/08/31 11:21:34;;;;;;;7.35;6.25;;;20.00;99.90;;;;;;5013619;28;20195;-88
2022/08/31 11:24:34;;;;;;;7.68;6.97;;;20.10;99.90;;;;;;4997521;28;20187;-88
2022/08/31 11:27:18;;;;;;;7.63;6.82;;;20.10;99.90;;;;;;4988296;28;20197;-86
2022/08/31 11:29:50;;;;;;;7.20;6.47;;;20.20;99.90;;;;;;4986777;28;20175;-86
2022/08/31 11:32:49;;;;;;;7.78;6.90;;;20.10;99.90;;;;;;4992931;28;20208;-87
2022/08/31 11:36:01;;;;;;;7.35;6.55;;;20.10;99.90;;;;;;5010234;28;20214;-86
2022/08/31 11:38:53;;;;;;;8.32;6.93;;;20.20;99.90;;;;;;5027472;28;20274;-86
2022/08/31 11:41:50;;;;;;;8.63;6.97;;;20.20;99.90;;;;;;5004888;28;20207;-87
2022/08/31 11:44:32;;;;;;;8.00;7.30;;;20.20;99.90;;;;;;4993989;28;20183;-87
2022/08/31 11:47:27;;;;;;;7.80;7.10;;;20.30;99.90;;;;;;4994958;28;20190;-87
2022/08/31 11:50:01;;;;;;;8.18;6.97;;;20.30;99.90;;;;;;4994920;28;20175;-87
2022/08/31 11:52:39;;;;;;;8.05;7.28;;;20.40;99.90;;;;;;5002060;28;20211;-87
2022/08/31 11:55:19;;;;;;;8.15;6.57;;;20.50;99.90;;;;;;5008413;28;20237;-87
2022/08/31 11:58:14;;;;;;;8.32;7.53;;;20.70;99.90;;;;;;5003564;28;20202;-87
2022/08/31 12:01:01;;;;;;;7.75;6.93;;;20.80;99.90;;;;;;4998844;28;20225;-87
2022/08/31 12:03:33;;;;;;;10.70;8.38;;;21.00;99.90;;;;;;5014640;28;20260;-87
2022/08/31 12:06:07;;;;;;;9.75;8.35;;;21.00;99.90;;;;;;5011678;28;20189;-86
2022/08/31 12:08:53;;;;;;;8.63;7.82;;;21.00;99.90;;;;;;5000527;28;20183;-85
2022/08/31 12:11:39;;;;;;;10.15;8.15;;;21.10;99.90;;;;;;4987757;28;20214;-84
2022/08/31 12:14:55;;;;;;;10.20;7.55;;;21.20;99.90;;;;;;4989549;28;20265;-85
2022/08/31 12:17:43;;;;;;;8.30;6.80;;;21.20;99.90;;;;;;5002984;28;20260;-79
2022/08/31 12:24:11;;;;;;;8.57;7.38;;;21.50;99.90;;;;;;4983016;28;20197;-80
2022/08/31 12:26:56;;;;;;;10.10;8.18;;;21.80;99.90;;;;;;4992950;28;20196;-80
2022/08/31 12:29:32;;;;;;;8.82;8.02;;;22.00;99.90;;;;;;4996642;28;20167;-80
2022/08/31 12:32:20;;;;;;;9.07;8.18;;;22.00;99.90;;;;;;5016319;28;20191;-80
2022/08/31 12:34:59;;;;;;;9.32;8.38;;;22.10;99.90;;;;;;4995244;28;20210;-80
2022/08/31 12:37:32;;;;;;;8.10;7.30;;;22.10;99.90;;;;;;5003441;28;20196;-79
2022/08/31 12:40:15;;;;;;;8.52;7.72;;;22.20;99.90;;;;;;5009864;28;20181;-80
2022/08/31 12:42:56;;;;;;;9.68;7.93;;;22.30;99.90;;;;;;5018916;28;20681;-80
2022/08/31 12:45:59;;;;;;;9.73;8.82;;;22.40;99.90;;;;;;4996360;28;20172;-80
2022/08/31 12:49:00;;;;;;;8.50;7.65;;;22.40;99.90;;;;;;4996198;28;20232;-89
2022/08/31 12:51:51;;;;;;;9.48;8.60;;;22.40;99.90;;;;;;4993515;28;20274;-91
2022/08/31 12:54:55;;;;;;;8.70;7.85;;;22.50;99.90;;;;;;4996352;28;20187;-90
2022/08/31 12:57:43;;;;;;;9.80;8.30;;;22.20;99.90;;;;;;4996626;28;20213;-91
2022/08/31 13:01:04;;;;;;;10.00;8.48;;;22.20;99.90;;;;;;4996775;28;20179;-91
2022/08/31 13:04:17;;;;;;;8.73;7.78;;;22.30;99.90;;;;;;4996239;28;20225;-90
2022/08/31 13:06:46;;;;;;;11.68;10.27;;;22.20;99.90;;;;;;4936899;29;20193;-91
2022/08/31 13:09:27;;;;;;;10.40;9.10;;;22.20;99.90;;;;;;4999720;28;20188;-91
2022/08/31 13:11:57;;;;;;;11.68;10.48;;;22.20;99.90;;;;;;5002636;28;20199;-90
2022/08/31 13:14:37;;;;;;;10.23;9.23;;;22.00;99.90;;;;;;4991906;28;20206;-91
2022/08/31 13:17:16;;;;;;;10.30;9.13;;;22.00;99.90;;;;;;4992562;28;20211;-91
2022/08/31 13:19:56;;;;;;;8.77;7.57;;;22.10;99.90;;;;;;4991705;28;20179;-90
2022/08/31 13:22:32;;;;;;;10.55;9.55;;;22.20;99.90;;;;;;5009726;28;20195;-82
2022/08/31 13:25:26;;;;;;;9.13;8.00;;;22.10;99.90;;;;;;5000706;28;20180;-86
2022/08/31 13:27:52;;;;;;;9.45;8.35;;;22.10;99.90;;;;;;4996922;28;20230;-86
2022/08/31 13:30:22;;;;;;;13.48;8.05;;;22.00;99.90;;;;;;4999389;28;20270;-86
2022/08/31 13:32:49;;;;;;;9.27;8.02;;;22.00;99.90;;;;;;4997425;28;20202;-86
2022/08/31 13:35:19;;;;;;;12.43;10.13;;;22.10;99.90;;;;;;4993472;28;20672;-86
2022/08/31 13:38:06;;;;;;;9.60;8.40;;;21.90;99.90;;;;;;5007173;28;20176;-87
2022/08/31 13:40:36;;;;;;;9.25;8.35;;;21.80;99.90;;;;;;5002665;28;20186;-87
2022/08/31 13:43:06;;;;;;;11.55;9.32;;;21.80;99.90;;;;;;4991615;28;20263;-86